Time;durP1;ratioP1;P1;durP2;ratioP2;P2;SDS_P1;SDS_P2;PMS_P1;PMS_P2;Temp;Humidity;BMP_temperature;BMP_pressure;BME280_temperature;BME280_humidity;BME280_pressure;Samples;Min_cycle;Max_cycle;Signal;HPM_P1;HPM_P2
2023/06/27 00:09:29;;;;;;;1.23;0.77;;;;;;;20.72;66.67;101609.09;21067543;28;19969;-63
2023/06/27 00:19:31;;;;;;;1.05;0.68;;;;;;;20.71;67.08;101618.22;21066561;28;20070;-63
2023/06/27 00:29:36;;;;;;;1.48;0.65;;;;;;;20.70;66.90;101613.81;21053152;28;20482;-63
2023/06/27 00:39:40;;;;;;;1.17;0.80;;;;;;;20.68;66.96;101602.25;21065802;28;20040;-63
2023/06/27 00:49:42;;;;;;;1.70;0.75;;;;;;;20.67;66.90;101594.31;21065549;28;20306;-64
2023/06/27 00:59:45;;;;;;;1.02;0.70;;;;;;;20.66;67.23;101593.44;21048933;28;20412;-63
2023/06/27 01:09:51;;;;;;;1.33;0.80;;;;;;;20.62;67.11;101581.19;21063415;28;20080;-63
2023/06/27 01:19:54;;;;;;;0.80;0.77;;;;;;;20.63;67.56;101593.72;21064044;28;20054;-63
2023/06/27 01:29:56;;;;;;;1.27;0.80;;;;;;;20.62;67.02;101597.41;21068182;28;20044;-63
2023/06/27 01:40:19;;;;;;;1.75;0.90;;;;;;;20.52;67.42;101580.28;21079598;28;20079;-63
2023/06/27 01:50:21;;;;;;;0.90;0.80;;;;;;;20.58;67.26;101587.84;21076608;28;20055;-64
2023/06/27 02:00:23;;;;;;;1.08;0.82;;;;;;;20.57;67.21;101588.84;20993816;28;20049;-63
2023/06/27 02:10:24;;;;;;;0.88;0.77;;;;;;;20.56;66.89;101577.19;20993177;28;20082;-63
2023/06/27 02:20:28;;;;;;;1.15;0.80;;;;;;;20.54;66.61;101578.31;20992164;28;20048;-63
2023/06/27 02:30:30;;;;;;;0.97;0.80;;;;;;;20.52;66.72;101574.88;20973056;28;20069;-63
2023/06/27 02:40:32;;;;;;;1.00;0.93;;;;;;;20.52;66.77;101566.78;20956764;28;20079;-64
2023/06/27 02:50:34;;;;;;;1.65;0.98;;;;;;;20.50;66.68;101575.00;20947206;28;20072;-64
2023/06/27 03:00:38;;;;;;;1.40;1.00;;;;;;;20.49;66.63;101580.56;20959587;28;20064;-63
2023/06/27 03:10:39;;;;;;;1.08;0.90;;;;;;;20.48;66.52;101584.28;20935331;28;20048;-64
2023/06/27 03:20:42;;;;;;;1.45;0.90;;;;;;;20.47;66.79;101582.56;20943255;28;20098;-64
2023/06/27 03:30:44;;;;;;;1.30;1.10;;;;;;;20.45;67.04;101587.25;20937389;28;20532;-64
2023/06/27 03:40:50;;;;;;;1.55;0.95;;;;;;;20.42;66.81;101589.22;20947234;28;20049;-64
2023/06/27 03:50:54;;;;;;;1.65;1.10;;;;;;;20.42;66.93;101591.94;20932274;28;20144;-64
2023/06/27 04:00:55;;;;;;;1.60;1.25;;;;;;;20.40;67.18;101588.53;20966415;28;20085;-64
2023/06/27 04:10:57;;;;;;;1.85;1.23;;;;;;;20.40;67.29;101588.53;20943011;28;20429;-64
2023/06/27 04:21:00;;;;;;;2.20;1.42;;;;;;;20.40;67.90;101577.69;20934463;28;20120;-64
2023/06/27 04:31:02;;;;;;;1.67;1.20;;;;;;;20.37;67.95;101577.97;20907257;28;20460;-65
2023/06/27 04:41:05;;;;;;;1.52;1.05;;;;;;;20.40;71.23;101583.13;20908296;28;20092;-65
2023/06/27 04:51:08;;;;;;;1.80;1.47;;;;;;;20.43;72.60;101577.44;20927631;28;20145;-66
2023/06/27 05:01:10;;;;;;;0.93;0.82;;;;;;;20.47;74.14;101571.75;20932199;28;20044;-65
2023/06/27 05:11:11;;;;;;;1.35;1.08;;;;;;;20.49;73.81;101584.13;20942986;28;20602;-65
2023/06/27 05:21:13;;;;;;;1.23;1.10;;;;;;;20.53;77.30;101587.41;20962333;28;20037;-65
2023/06/27 05:31:15;;;;;;;3.40;1.85;;;;;;;20.52;74.14;101578.44;20949708;28;20102;-64
2023/06/27 05:41:18;;;;;;;4.85;1.73;;;;;;;20.54;77.72;101584.56;20968435;28;20064;-65
2023/06/27 05:51:22;;;;;;;5.50;2.17;;;;;;;20.55;74.99;101580.03;20948506;28;20586;-65
2023/06/27 06:01:23;;;;;;;5.38;2.17;;;;;;;20.56;78.58;101570.91;20946346;28;20044;-66
2023/06/27 06:11:25;;;;;;;5.25;1.65;;;;;;;20.59;80.46;101576.03;20978424;28;20052;-64
2023/06/27 06:21:27;;;;;;;6.43;1.75;;;;;;;20.61;81.09;101584.03;20972907;28;20119;-64
2023/06/27 06:31:29;;;;;;;3.45;1.30;;;;;;;20.62;79.55;101589.28;20982293;28;20056;-64
2023/06/27 06:41:30;;;;;;;2.38;1.52;;;;;;;20.66;78.85;101588.03;20931289;28;20045;-64
2023/06/27 06:51:32;;;;;;;3.58;1.23;;;;;;;20.71;78.74;101598.44;20946606;28;20048;-64
2023/06/27 07:01:34;;;;;;;3.17;1.27;;;;;;;20.75;77.24;101588.19;20928495;28;20106;-64
2023/06/27 07:11:35;;;;;;;2.35;1.02;;;;;;;20.80;76.49;101588.69;20957077;28;20056;-64
2023/06/27 07:21:37;;;;;;;1.67;1.15;;;;;;;20.85;75.09;101589.09;20934965;28;20044;-64
2023/06/27 07:31:39;;;;;;;3.97;1.13;;;;;;;20.94;75.21;101585.56;20930377;28;20687;-65
2023/06/27 07:41:41;;;;;;;1.73;1.30;;;;;;;21.01;73.88;101580.44;20931095;28;20141;-64
2023/06/27 07:51:42;;;;;;;2.60;1.13;;;;;;;21.18;71.72;101578.03;20954967;28;20106;-64
2023/06/27 08:01:44;;;;;;;2.63;1.33;;;;;;;21.27;71.30;101571.75;20952461;28;20112;-64
2023/06/27 08:11:46;;;;;;;2.33;1.17;;;;;;;21.27;71.00;101591.59;20941639;28;20045;-64
2023/06/27 08:21:47;;;;;;;4.15;1.23;;;;;;;21.26;70.89;101583.59;20938493;28;20102;-64
2023/06/27 08:31:51;;;;;;;2.47;0.93;;;;;;;21.24;71.29;101591.00;20956116;28;20154;-64
2023/06/27 08:41:53;;;;;;;1.60;0.80;;;;;;;21.84;69.55;101593.56;20933499;28;20045;-64
2023/06/27 08:51:57;;;;;;;3.35;1.38;;;;;;;22.69;67.56;101579.13;20934458;28;20076;-64
2023/06/27 09:02:00;;;;;;;1.70;0.95;;;;;;;23.30;65.96;101590.28;20932340;28;20159;-64
2023/06/27 09:12:02;;;;;;;1.83;0.87;;;;;;;22.88;66.54;101574.56;20970706;28;20055;-64
2023/06/27 09:22:05;;;;;;;1.77;0.90;;;;;;;22.46;68.42;101565.13;21023003;28;20075;-64
2023/06/27 09:32:08;;;;;;;1.30;0.80;;;;;;;22.21;70.07;101562.03;21005674;28;20102;-64
2023/06/27 09:42:11;;;;;;;1.80;0.85;;;;;;;22.08;70.39;101573.22;21057804;28;20055;-64
2023/06/27 09:52:13;;;;;;;1.70;0.90;;;;;;;21.96;71.17;101580.69;20993341;28;20517;-64
2023/06/27 10:02:15;;;;;;;1.38;0.68;;;;;;;21.90;70.90;101583.13;20993053;28;20066;-64
2023/06/27 10:12:17;;;;;;;2.20;0.75;;;;;;;21.85;71.59;101579.00;20993218;28;20513;-64
2023/06/27 10:22:21;;;;;;;0.82;0.63;;;;;;;21.84;71.91;101573.72;21040394;28;20495;-64
2023/06/27 10:32:38;;;;;;;3.03;0.90;;;;;;;21.80;71.49;101586.72;20955894;28;20518;-64
2023/06/27 10:42:40;;;;;;;1.42;0.63;;;;;;;21.77;71.79;101576.16;20944637;28;20051;-65
2023/06/27 10:52:59;;;;;;;1.20;0.70;;;;;;;21.76;71.45;101568.19;20957721;28;20049;-64
2023/06/27 11:03:04;;;;;;;1.98;0.75;;;;;;;21.74;71.13;101568.34;20956020;28;20045;-64
2023/06/27 11:13:18;;;;;;;1.48;0.68;;;;;;;21.72;71.30;101575.75;20962101;28;20106;-64
2023/06/27 11:23:21;;;;;;;1.50;0.85;;;;;;;21.69;71.24;101568.75;21001348;28;20056;-64
2023/06/27 11:33:25;;;;;;;1.00;0.63;;;;;;;21.72;71.13;101573.06;20942967;28;20123;-64
2023/06/27 11:43:27;;;;;;;1.40;0.60;;;;;;;21.71;71.58;101565.91;20962141;28;20044;-65
2023/06/27 11:53:29;;;;;;;2.35;0.70;;;;;;;21.72;71.34;101567.63;20965101;28;20068;-65
2023/06/27 12:03:35;;;;;;;2.70;1.10;;;;;;;21.68;71.24;101560.78;20954574;28;20082;-65
2023/06/27 12:13:51;;;;;;;3.00;0.75;;;;;;;21.66;70.55;101551.97;20924705;28;20501;-64
2023/06/27 12:23:53;;;;;;;2.63;0.80;;;;;;;21.66;70.13;101552.78;20943518;28;20493;-64
2023/06/27 12:34:00;;;;;;;;;;;;;;;21.66;71.67;101552.78;20953232;28;20102;-64
2023/06/27 12:44:01;;;;;;;5.73;1.17;;;;;;;21.68;73.93;101549.97;20942025;28;19975;-64
2023/06/27 12:54:03;;;;;;;1.98;0.60;;;;;;;21.71;75.01;101546.94;20947175;28;20047;-63
2023/06/27 13:04:09;;;;;;;2.70;0.70;;;;;;;21.72;74.01;101554.09;20952723;28;20123;-64
2023/06/27 13:14:11;;;;;;;0.90;0.60;;;;;;;21.74;75.23;101549.38;20946837;28;20049;-64
2023/06/27 13:24:14;;;;;;;1.65;0.60;;;;;;;21.77;75.41;101538.22;20924149;28;20072;-64
2023/06/27 13:34:20;;;;;;;1.58;0.77;;;;;;;21.79;74.52;101554.34;20923682;28;20057;-64
2023/06/27 13:44:22;;;;;;;0.80;0.60;;;;;;;21.80;74.29;101554.19;20958297;28;20053;-64
2023/06/27 13:54:23;;;;;;;1.55;0.80;;;;;;;21.78;70.99;101537.22;20967685;28;20084;-64
2023/06/27 14:04:25;;;;;;;1.95;0.60;;;;;;;21.77;71.14;101537.38;20944937;28;20060;-64
2023/06/27 14:14:27;;;;;;;0.95;0.50;;;;;;;21.72;72.31;101529.69;20937019;28;20055;-65
2023/06/27 14:24:28;;;;;;;1.90;0.95;;;;;;;21.80;71.91;101548.78;20925151;28;20044;-65
2023/06/27 14:34:30;;;;;;;1.90;0.93;;;;;;;21.86;73.96;101545.47;20915471;28;20128;-64
2023/06/27 14:44:32;;;;;;;2.25;0.60;;;;;;;21.92;74.93;101541.34;20915208;28;20049;-66
2023/06/27 14:54:36;;;;;;;2.08;0.60;;;;;;;21.94;74.81;101524.91;20919986;28;20052;-63
2023/06/27 15:04:37;;;;;;;0.80;0.60;;;;;;;21.93;74.92;101536.75;20902477;28;20497;-63
2023/06/27 15:14:39;;;;;;;1.30;0.68;;;;;;;21.92;75.11;101513.34;20936452;28;20535;-62
2023/06/27 15:24:41;;;;;;;1.30;0.57;;;;;;;21.82;73.30;101506.13;20920767;28;20055;-65
2023/06/27 15:34:43;;;;;;;2.17;0.70;;;;;;;21.88;72.76;101513.66;20914694;28;20417;-64
2023/06/27 15:44:45;;;;;;;2.42;0.70;;;;;;;21.87;73.25;101522.78;20920040;28;20131;-62
2023/06/27 15:54:46;;;;;;;1.02;0.50;;;;;;;21.89;73.52;101509.09;20917605;28;20048;-63
2023/06/27 16:04:49;;;;;;;1.95;0.60;;;;;;;21.89;74.30;101514.53;20919108;28;20124;-63
2023/06/27 16:14:51;;;;;;;2.70;0.82;;;;;;;21.84;73.27;101519.50;20939746;28;20127;-62
2023/06/27 16:24:53;;;;;;;1.98;0.50;;;;;;;21.76;73.81;101520.25;20983394;28;20041;-62
2023/06/27 16:34:54;;;;;;;2.10;0.68;;;;;;;21.70;74.04;101526.28;20983544;28;20052;-62
2023/06/27 16:44:56;;;;;;;2.60;0.80;;;;;;;21.63;72.42;101525.09;20982873;28;20090;-62
2023/06/27 16:54:58;;;;;;;4.57;1.00;;;;;;;21.59;71.50;101538.09;20982310;28;20048;-62
2023/06/27 17:04:59;;;;;;;0.70;0.50;;;;;;;21.49;71.19;101521.84;20997473;28;20049;-62
2023/06/27 17:15:01;;;;;;;1.80;0.70;;;;;;;21.52;70.54;101536.97;21074334;28;20501;-62
2023/06/27 17:25:03;;;;;;;2.15;0.95;;;;;;;21.49;70.25;101534.56;21083106;28;20127;-62
2023/06/27 17:35:05;;;;;;;2.28;0.98;;;;;;;21.46;70.00;101551.94;21081532;28;20086;-62
2023/06/27 17:45:07;;;;;;;1.52;0.90;;;;;;;21.42;70.22;101555.94;21080430;28;20128;-62
2023/06/27 17:55:09;;;;;;;1.67;0.80;;;;;;;21.40;70.23;101557.94;21062392;28;20520;-62
2023/06/27 18:05:11;;;;;;;2.08;0.70;;;;;;;21.38;70.32;101555.34;21076527;28;20052;-62
2023/06/27 18:15:12;;;;;;;1.63;0.80;;;;;;;21.36;70.52;101556.50;21078029;28;20052;-62
2023/06/27 18:25:14;;;;;;;4.65;1.10;;;;;;;21.35;70.78;101549.38;21056040;28;20477;-62
2023/06/27 18:35:18;;;;;;;;;;;;;;;21.32;71.11;101545.09;20976050;28;20144;-62
2023/06/27 18:45:27;;;;;;;1.77;0.95;;;;;;;21.29;71.31;101537.25;20991813;28;19958;-62
2023/06/27 18:55:29;;;;;;;1.55;0.60;;;;;;;21.27;71.87;101539.25;20981923;28;20087;-62
2023/06/27 19:05:32;;;;;;;2.00;0.90;;;;;;;21.25;71.48;101558.38;20970397;28;20094;-62
2023/06/27 19:15:35;;;;;;;0.95;0.70;;;;;;;21.24;71.68;101550.38;20956131;28;20052;-63
2023/06/27 19:25:37;;;;;;;2.03;1.10;;;;;;;21.22;71.45;101550.53;20964759;28;20071;-62
2023/06/27 19:35:39;;;;;;;1.27;0.68;;;;;;;21.20;71.48;101557.91;20967435;28;20048;-62
2023/06/27 19:45:41;;;;;;;2.55;1.05;;;;;;;21.18;70.95;101556.38;20959012;28;20059;-62
2023/06/27 19:55:43;;;;;;;2.30;0.80;;;;;;;21.16;71.11;101567.31;20947561;28;20502;-62
2023/06/27 20:05:45;;;;;;;1.75;0.70;;;;;;;21.15;71.04;101587.28;21008774;28;20040;-62
2023/06/27 20:15:46;;;;;;;1.80;0.80;;;;;;;21.12;70.81;101569.47;20984220;28;20067;-62
2023/06/27 20:25:49;;;;;;;1.35;0.68;;;;;;;21.11;71.21;101569.59;20962103;28;20102;-62
2023/06/27 20:35:51;;;;;;;1.27;0.60;;;;;;;21.10;71.78;101571.47;20968841;28;20095;-62
2023/06/27 20:45:52;;;;;;;1.00;0.70;;;;;;;21.06;71.94;101572.75;20975979;28;20087;-62
2023/06/27 20:55:55;;;;;;;0.95;0.70;;;;;;;21.05;71.23;101581.00;20961879;28;20083;-62
2023/06/27 21:05:58;;;;;;;1.50;0.60;;;;;;;21.01;70.92;101575.88;20949226;28;20552;-62
2023/06/27 21:15:59;;;;;;;0.73;0.50;;;;;;;21.00;70.65;101578.75;20959257;28;20048;-62
2023/06/27 21:26:01;;;;;;;1.73;0.85;;;;;;;20.96;70.13;101564.63;20947608;28;20547;-62
2023/06/27 21:36:03;;;;;;;1.23;0.68;;;;;;;20.93;69.78;101562.19;20957619;28;20049;-62
2023/06/27 21:46:05;;;;;;;3.05;0.88;;;;;;;20.88;69.80;101558.19;20936076;28;20072;-62
2023/06/27 21:56:07;;;;;;;1.08;0.57;;;;;;;20.88;69.69;101556.34;20968101;28;20060;-62
2023/06/27 22:06:09;;;;;;;2.20;1.00;;;;;;;20.85;69.48;101554.78;20970841;28;20044;-62
2023/06/27 22:16:11;;;;;;;1.85;0.90;;;;;;;20.85;69.43;101554.78;20952929;28;20076;-62
2023/06/27 22:26:13;;;;;;;1.23;0.68;;;;;;;20.83;69.41;101551.34;20988622;28;20062;-62
2023/06/27 22:36:14;;;;;;;1.90;0.95;;;;;;;20.82;69.30;101543.38;20967839;28;20094;-62
2023/06/27 22:46:16;;;;;;;1.30;0.60;;;;;;;20.80;69.14;101539.97;20988780;28;20094;-62
2023/06/27 22:56:18;;;;;;;2.08;0.90;;;;;;;20.78;69.08;101544.63;20949861;28;20049;-62
2023/06/27 23:06:20;;;;;;;1.95;0.70;;;;;;;20.76;69.00;101544.75;20966963;28;20110;-62
2023/06/27 23:16:22;;;;;;;1.10;0.63;;;;;;;20.75;69.23;101545.75;20970315;28;20091;-62
2023/06/27 23:26:28;;;;;;;2.05;0.60;;;;;;;20.74;69.32;101544.03;20963845;28;20040;-62
2023/06/27 23:36:38;;;;;;;1.55;0.82;;;;;;;20.64;69.32;101525.06;20955698;28;20076;-62
2023/06/27 23:46:40;;;;;;;1.05;0.65;;;;;;;20.70;69.11;101532.63;20956991;28;20049;-62
2023/06/27 23:56:42;;;;;;;1.08;0.82;;;;;;;20.69;69.12;101533.63;20953482;28;20053;-62
